sensor_id;sensor_type;location;lat;lon;timestamp;temperature;humidity
75022;SHT31;63583;49.976;20.182;2023-03-04T00:00:44;-0.36;87.10
75022;SHT31;63583;49.976;20.182;2023-03-04T00:03:19;-0.27;87.12
75022;SHT31;63583;49.976;20.182;2023-03-04T00:05:44;-0.22;86.59
75022;SHT31;63583;49.976;20.182;2023-03-04T00:08:12;-0.37;87.11
75022;SHT31;63583;49.976;20.182;2023-03-04T00:10:37;-0.30;87.03
75022;SHT31;63583;49.976;20.182;2023-03-04T00:13:03;-0.31;87.28
75022;SHT31;63583;49.976;20.182;2023-03-04T00:15:29;-0.31;87.11
75022;SHT31;63583;49.976;20.182;2023-03-04T00:17:55;-0.30;87.08
75022;SHT31;63583;49.976;20.182;2023-03-04T00:20:20;-0.30;87.23
75022;SHT31;63583;49.976;20.182;2023-03-04T00:22:46;-0.31;87.49
75022;SHT31;63583;49.976;20.182;2023-03-04T00:25:12;-0.31;87.51
75022;SHT31;63583;49.976;20.182;2023-03-04T00:27:37;-0.44;88.08
75022;SHT31;63583;49.976;20.182;2023-03-04T00:30:05;-0.38;88.00
75022;SHT31;63583;49.976;20.182;2023-03-04T00:32:31;-0.37;87.93
75022;SHT31;63583;49.976;20.182;2023-03-04T00:34:56;-0.30;87.71
75022;SHT31;63583;49.976;20.182;2023-03-04T00:37:22;-0.34;87.76
75022;SHT31;63583;49.976;20.182;2023-03-04T00:39:47;-0.34;87.85
75022;SHT31;63583;49.976;20.182;2023-03-04T00:42:13;-0.24;87.38
75022;SHT31;63583;49.976;20.182;2023-03-04T00:44:39;-0.22;86.90
75022;SHT31;63583;49.976;20.182;2023-03-04T00:47:04;-0.34;87.12
75022;SHT31;63583;49.976;20.182;2023-03-04T00:49:30;-0.36;87.28
75022;SHT31;63583;49.976;20.182;2023-03-04T00:51:55;-0.33;87.47
75022;SHT31;63583;49.976;20.182;2023-03-04T00:54:21;-0.38;87.97
75022;SHT31;63583;49.976;20.182;2023-03-04T00:56:47;-0.38;87.74
75022;SHT31;63583;49.976;20.182;2023-03-04T00:59:12;-0.30;87.46
75022;SHT31;63583;49.976;20.182;2023-03-04T01:01:38;-0.29;87.51
75022;SHT31;63583;49.976;20.182;2023-03-04T01:04:04;-0.27;86.90
75022;SHT31;63583;49.976;20.182;2023-03-04T01:06:29;-0.20;86.97
75022;SHT31;63583;49.976;20.182;2023-03-04T01:08:55;-0.40;87.61
75022;SHT31;63583;49.976;20.182;2023-03-04T01:11:21;-0.37;87.77
75022;SHT31;63583;49.976;20.182;2023-03-04T01:13:46;-0.38;87.76
75022;SHT31;63583;49.976;20.182;2023-03-04T01:16:13;-0.38;87.68
75022;SHT31;63583;49.976;20.182;2023-03-04T01:18:38;-0.30;87.52
75022;SHT31;63583;49.976;20.182;2023-03-04T01:21:04;-0.29;87.24
75022;SHT31;63583;49.976;20.182;2023-03-04T01:23:30;-0.30;87.33
75022;SHT31;63583;49.976;20.182;2023-03-04T01:25:56;-0.29;87.21
75022;SHT31;63583;49.976;20.182;2023-03-04T01:28:21;-0.34;87.53
75022;SHT31;63583;49.976;20.182;2023-03-04T01:30:47;-0.27;87.26
75022;SHT31;63583;49.976;20.182;2023-03-04T01:33:13;-0.24;87.22
75022;SHT31;63583;49.976;20.182;2023-03-04T01:35:39;-0.17;87.11
75022;SHT31;63583;49.976;20.182;2023-03-04T01:38:04;-0.14;87.31
75022;SHT31;63583;49.976;20.182;2023-03-04T01:40:30;-0.19;87.38
75022;SHT31;63583;49.976;20.182;2023-03-04T01:42:56;-0.13;87.17
75022;SHT31;63583;49.976;20.182;2023-03-04T01:45:22;-0.10;87.08
75022;SHT31;63583;49.976;20.182;2023-03-04T01:47:48;-0.10;87.04
75022;SHT31;63583;49.976;20.182;2023-03-04T01:50:34;-0.14;87.39
75022;SHT31;63583;49.976;20.182;2023-03-04T01:53:00;-0.12;87.17
75022;SHT31;63583;49.976;20.182;2023-03-04T01:55:28;-0.12;87.37
75022;SHT31;63583;49.976;20.182;2023-03-04T01:57:54;-0.09;87.16
75022;SHT31;63583;49.976;20.182;2023-03-04T02:00:29;-0.07;87.05
75022;SHT31;63583;49.976;20.182;2023-03-04T02:03:10;-0.07;87.04
75022;SHT31;63583;49.976;20.182;2023-03-04T02:05:39;-0.02;86.83
75022;SHT31;63583;49.976;20.182;2023-03-04T02:08:06;-0.07;86.70
75022;SHT31;63583;49.976;20.182;2023-03-04T02:10:32;-0.01;86.53
75022;SHT31;63583;49.976;20.182;2023-03-04T02:12:59;-0.10;86.70
75022;SHT31;63583;49.976;20.182;2023-03-04T02:15:29;0.02;86.53
75022;SHT31;63583;49.976;20.182;2023-03-04T02:17:55;0.01;86.53
75022;SHT31;63583;49.976;20.182;2023-03-04T02:22:56;0.01;86.51
75022;SHT31;63583;49.976;20.182;2023-03-04T02:25:32;-0.12;86.89
75022;SHT31;63583;49.976;20.182;2023-03-04T02:28:00;-0.03;86.63
75022;SHT31;63583;49.976;20.182;2023-03-04T02:30:25;-0.10;86.77
75022;SHT31;63583;49.976;20.182;2023-03-04T02:32:52;-0.12;87.03
75022;SHT31;63583;49.976;20.182;2023-03-04T02:35:18;-0.07;86.83
75022;SHT31;63583;49.976;20.182;2023-03-04T02:37:44;-0.01;86.44
75022;SHT31;63583;49.976;20.182;2023-03-04T02:40:20;-0.09;86.70
75022;SHT31;63583;49.976;20.182;2023-03-04T02:42:47;-0.14;87.01
75022;SHT31;63583;49.976;20.182;2023-03-04T02:45:48;-0.03;86.52
75022;SHT31;63583;49.976;20.182;2023-03-04T02:48:17;0.01;86.53
75022;SHT31;63583;49.976;20.182;2023-03-04T02:50:46;0.01;86.52
75022;SHT31;63583;49.976;20.182;2023-03-04T02:53:12;0.02;86.30
75022;SHT31;63583;49.976;20.182;2023-03-04T02:55:38;0.02;86.25
75022;SHT31;63583;49.976;20.182;2023-03-04T02:58:04;0.09;85.73
75022;SHT31;63583;49.976;20.182;2023-03-04T03:00:29;0.02;86.13
75022;SHT31;63583;49.976;20.182;2023-03-04T03:02:55;0.05;86.36
75022;SHT31;63583;49.976;20.182;2023-03-04T03:05:23;0.02;86.33
75022;SHT31;63583;49.976;20.182;2023-03-04T03:07:49;0.04;86.14
75022;SHT31;63583;49.976;20.182;2023-03-04T03:10:15;0.01;86.15
75022;SHT31;63583;49.976;20.182;2023-03-04T03:12:41;-0.01;86.43
75022;SHT31;63583;49.976;20.182;2023-03-04T03:15:07;-0.01;86.33
75022;SHT31;63583;49.976;20.182;2023-03-04T03:17:33;-0.06;86.25
75022;SHT31;63583;49.976;20.182;2023-03-04T03:19:58;0.07;85.63
75022;SHT31;63583;49.976;20.182;2023-03-04T03:22:24;0.02;85.72
75022;SHT31;63583;49.976;20.182;2023-03-04T03:24:50;0.08;85.62
75022;SHT31;63583;49.976;20.182;2023-03-04T03:27:15;0.05;85.71
75022;SHT31;63583;49.976;20.182;2023-03-04T03:29:41;0.04;85.59
75022;SHT31;63583;49.976;20.182;2023-03-04T03:32:07;0.01;85.55
75022;SHT31;63583;49.976;20.182;2023-03-04T03:34:33;-0.05;85.87
75022;SHT31;63583;49.976;20.182;2023-03-04T03:36:58;0.01;85.86
75022;SHT31;63583;49.976;20.182;2023-03-04T03:39:24;-0.05;85.98
75022;SHT31;63583;49.976;20.182;2023-03-04T03:41:50;0.05;85.87
75022;SHT31;63583;49.976;20.182;2023-03-04T03:44:15;0.16;85.32
75022;SHT31;63583;49.976;20.182;2023-03-04T03:46:41;0.07;84.79
75022;SHT31;63583;49.976;20.182;2023-03-04T03:49:06;0.02;85.67
75022;SHT31;63583;49.976;20.182;2023-03-04T03:51:32;0.18;84.92
75022;SHT31;63583;49.976;20.182;2023-03-04T03:53:58;0.09;85.26
75022;SHT31;63583;49.976;20.182;2023-03-04T03:56:23;0.04;85.27
75022;SHT31;63583;49.976;20.182;2023-03-04T03:58:49;0.09;84.84
75022;SHT31;63583;49.976;20.182;2023-03-04T04:01:14;0.02;85.20
75022;SHT31;63583;49.976;20.182;2023-03-04T04:03:40;-0.01;85.64
75022;SHT31;63583;49.976;20.182;2023-03-04T04:06:06;0.04;85.52
75022;SHT31;63583;49.976;20.182;2023-03-04T04:08:32;0.07;85.15
75022;SHT31;63583;49.976;20.182;2023-03-04T04:10:58;-0.01;85.58
75022;SHT31;63583;49.976;20.182;2023-03-04T04:13:23;-0.01;85.87
75022;SHT31;63583;49.976;20.182;2023-03-04T04:15:52;0.12;85.42
75022;SHT31;63583;49.976;20.182;2023-03-04T04:18:18;-0.01;85.77
75022;SHT31;63583;49.976;20.182;2023-03-04T04:20:45;0.08;85.37
75022;SHT31;63583;49.976;20.182;2023-03-04T04:23:11;0.04;85.67
75022;SHT31;63583;49.976;20.182;2023-03-04T04:25:36;0.02;85.70
75022;SHT31;63583;49.976;20.182;2023-03-04T04:28:02;0.12;85.50
75022;SHT31;63583;49.976;20.182;2023-03-04T04:30:28;0.14;85.26
75022;SHT31;63583;49.976;20.182;2023-03-04T04:32:53;0.14;85.16
75022;SHT31;63583;49.976;20.182;2023-03-04T04:35:19;0.11;85.29
75022;SHT31;63583;49.976;20.182;2023-03-04T04:37:45;0.07;85.47
75022;SHT31;63583;49.976;20.182;2023-03-04T04:40:11;0.14;85.20
75022;SHT31;63583;49.976;20.182;2023-03-04T04:42:37;-0.01;85.67
75022;SHT31;63583;49.976;20.182;2023-03-04T04:45:02;-0.12;86.14
75022;SHT31;63583;49.976;20.182;2023-03-04T04:47:28;-0.05;86.13
75022;SHT31;63583;49.976;20.182;2023-03-04T04:49:54;0.09;85.49
75022;SHT31;63583;49.976;20.182;2023-03-04T04:52:19;0.05;85.61
75022;SHT31;63583;49.976;20.182;2023-03-04T04:54:45;-0.01;85.86
75022;SHT31;63583;49.976;20.182;2023-03-04T04:57:11;0.11;85.58
75022;SHT31;63583;49.976;20.182;2023-03-04T04:59:36;0.09;85.38
75022;SHT31;63583;49.976;20.182;2023-03-04T05:02:02;0.05;85.33
75022;SHT31;63583;49.976;20.182;2023-03-04T05:04:27;0.08;85.43
75022;SHT31;63583;49.976;20.182;2023-03-04T05:06:53;0.12;85.68
75022;SHT31;63583;49.976;20.182;2023-03-04T05:09:19;0.12;85.54
75022;SHT31;63583;49.976;20.182;2023-03-04T05:11:45;-0.09;86.25
75022;SHT31;63583;49.976;20.182;2023-03-04T05:14:10;-0.01;86.01
75022;SHT31;63583;49.976;20.182;2023-03-04T05:16:36;-0.05;86.34
75022;SHT31;63583;49.976;20.182;2023-03-04T05:19:02;-0.03;86.04
75022;SHT31;63583;49.976;20.182;2023-03-04T05:21:28;-0.01;86.09
75022;SHT31;63583;49.976;20.182;2023-03-04T05:23:53;0.01;85.98
75022;SHT31;63583;49.976;20.182;2023-03-04T05:26:19;-0.01;86.26
75022;SHT31;63583;49.976;20.182;2023-03-04T05:28:45;-0.06;86.96
75022;SHT31;63583;49.976;20.182;2023-03-04T05:31:11;-0.09;86.65
75022;SHT31;63583;49.976;20.182;2023-03-04T05:33:37;-0.02;86.41
75022;SHT31;63583;49.976;20.182;2023-03-04T05:36:12;0.02;86.37
75022;SHT31;63583;49.976;20.182;2023-03-04T05:38:37;-0.07;86.59
75022;SHT31;63583;49.976;20.182;2023-03-04T05:41:05;-0.01;86.35
75022;SHT31;63583;49.976;20.182;2023-03-04T05:43:32;0.04;86.25
75022;SHT31;63583;49.976;20.182;2023-03-04T05:46:01;-0.03;86.43
75022;SHT31;63583;49.976;20.182;2023-03-04T05:48:27;-0.03;86.44
75022;SHT31;63583;49.976;20.182;2023-03-04T05:50:58;-0.01;86.74
75022;SHT31;63583;49.976;20.182;2023-03-04T05:53:25;-0.03;86.90
75022;SHT31;63583;49.976;20.182;2023-03-04T05:55:51;-0.05;86.57
75022;SHT31;63583;49.976;20.182;2023-03-04T05:58:18;-0.07;86.46
75022;SHT31;63583;49.976;20.182;2023-03-04T06:00:44;-0.02;86.39
75022;SHT31;63583;49.976;20.182;2023-03-04T06:03:18;-0.09;86.67
75022;SHT31;63583;49.976;20.182;2023-03-04T06:05:44;-0.03;87.22
75022;SHT31;63583;49.976;20.182;2023-03-04T06:08:10;-0.02;86.84
75022;SHT31;63583;49.976;20.182;2023-03-04T06:10:38;0.02;86.24
75022;SHT31;63583;49.976;20.182;2023-03-04T06:13:03;-0.02;86.26
75022;SHT31;63583;49.976;20.182;2023-03-04T06:15:29;-0.01;86.74
75022;SHT31;63583;49.976;20.182;2023-03-04T06:17:55;-0.03;86.44
75022;SHT31;63583;49.976;20.182;2023-03-04T06:20:21;0.01;86.48
75022;SHT31;63583;49.976;20.182;2023-03-04T06:22:46;-0.05;86.16
75022;SHT31;63583;49.976;20.182;2023-03-04T06:25:12;-0.20;86.73
75022;SHT31;63583;49.976;20.182;2023-03-04T06:27:38;-0.10;86.35
75022;SHT31;63583;49.976;20.182;2023-03-04T06:30:04;-0.07;86.19
75022;SHT31;63583;49.976;20.182;2023-03-04T06:32:30;-0.19;86.98
75022;SHT31;63583;49.976;20.182;2023-03-04T06:34:55;-0.07;86.73
75022;SHT31;63583;49.976;20.182;2023-03-04T06:37:21;-0.07;86.92
75022;SHT31;63583;49.976;20.182;2023-03-04T06:39:47;-0.06;86.48
75022;SHT31;63583;49.976;20.182;2023-03-04T06:42:13;-0.16;86.43
75022;SHT31;63583;49.976;20.182;2023-03-04T06:44:39;-0.12;86.74
75022;SHT31;63583;49.976;20.182;2023-03-04T06:47:04;-0.13;86.44
75022;SHT31;63583;49.976;20.182;2023-03-04T06:49:30;-0.06;87.03
75022;SHT31;63583;49.976;20.182;2023-03-04T06:51:55;-0.10;86.23
75022;SHT31;63583;49.976;20.182;2023-03-04T06:54:21;-0.31;87.25
75022;SHT31;63583;49.976;20.182;2023-03-04T06:56:47;-0.27;86.98
75022;SHT31;63583;49.976;20.182;2023-03-04T06:59:12;-0.27;87.12
75022;SHT31;63583;49.976;20.182;2023-03-04T07:01:38;-0.23;86.68
75022;SHT31;63583;49.976;20.182;2023-03-04T07:04:04;-0.19;86.63
75022;SHT31;63583;49.976;20.182;2023-03-04T07:06:30;-0.14;86.47
75022;SHT31;63583;49.976;20.182;2023-03-04T07:08:56;-0.17;86.82
75022;SHT31;63583;49.976;20.182;2023-03-04T07:11:22;-0.16;86.38
75022;SHT31;63583;49.976;20.182;2023-03-04T07:13:49;-0.17;86.46
75022;SHT31;63583;49.976;20.182;2023-03-04T07:16:18;-0.12;87.05
75022;SHT31;63583;49.976;20.182;2023-03-04T07:18:44;-0.06;86.49
75022;SHT31;63583;49.976;20.182;2023-03-04T07:21:11;-0.07;86.33
75022;SHT31;63583;49.976;20.182;2023-03-04T07:23:38;-0.19;86.62
75022;SHT31;63583;49.976;20.182;2023-03-04T07:26:04;-0.14;86.43
75022;SHT31;63583;49.976;20.182;2023-03-04T07:28:30;-0.13;86.07
75022;SHT31;63583;49.976;20.182;2023-03-04T07:30:55;-0.05;85.92
75022;SHT31;63583;49.976;20.182;2023-03-04T07:33:21;-0.12;85.41
75022;SHT31;63583;49.976;20.182;2023-03-04T07:35:47;-0.06;85.30
75022;SHT31;63583;49.976;20.182;2023-03-04T07:38:14;-0.23;85.04
75022;SHT31;63583;49.976;20.182;2023-03-04T07:40:39;-0.23;84.92
75022;SHT31;63583;49.976;20.182;2023-03-04T07:43:05;-0.31;85.22
75022;SHT31;63583;49.976;20.182;2023-03-04T07:45:30;-0.34;85.24
75022;SHT31;63583;49.976;20.182;2023-03-04T07:47:57;-0.22;84.89
75022;SHT31;63583;49.976;20.182;2023-03-04T07:50:23;-0.09;84.70
75022;SHT31;63583;49.976;20.182;2023-03-04T07:52:48;-0.19;84.79
75022;SHT31;63583;49.976;20.182;2023-03-04T07:55:18;-0.23;85.26
75022;SHT31;63583;49.976;20.182;2023-03-04T07:57:45;-0.10;85.15
75022;SHT31;63583;49.976;20.182;2023-03-04T08:00:13;-0.27;85.28
75022;SHT31;63583;49.976;20.182;2023-03-04T08:02:40;-0.37;85.84
75022;SHT31;63583;49.976;20.182;2023-03-04T08:05:05;-0.41;85.80
75022;SHT31;63583;49.976;20.182;2023-03-04T08:07:31;-0.41;85.56
75022;SHT31;63583;49.976;20.182;2023-03-04T08:09:57;-0.53;86.07
75022;SHT31;63583;49.976;20.182;2023-03-04T08:12:25;-0.41;85.37
75022;SHT31;63583;49.976;20.182;2023-03-04T08:14:51;-0.50;84.83
75022;SHT31;63583;49.976;20.182;2023-03-04T08:17:17;-0.56;84.97
75022;SHT31;63583;49.976;20.182;2023-03-04T08:19:43;-0.68;85.35
75022;SHT31;63583;49.976;20.182;2023-03-04T08:22:10;-0.62;85.36
75022;SHT31;63583;49.976;20.182;2023-03-04T08:24:36;-0.64;85.42
75022;SHT31;63583;49.976;20.182;2023-03-04T08:27:02;-0.60;85.30
75022;SHT31;63583;49.976;20.182;2023-03-04T08:29:28;-0.49;85.22
75022;SHT31;63583;49.976;20.182;2023-03-04T08:31:54;-0.57;85.70
75022;SHT31;63583;49.976;20.182;2023-03-04T08:34:22;-0.54;86.00
75022;SHT31;63583;49.976;20.182;2023-03-04T08:36:49;-0.49;86.10
75022;SHT31;63583;49.976;20.182;2023-03-04T08:39:16;-0.53;85.78
75022;SHT31;63583;49.976;20.182;2023-03-04T08:41:42;-0.45;86.01
75022;SHT31;63583;49.976;20.182;2023-03-04T08:44:08;-0.44;85.87
75022;SHT31;63583;49.976;20.182;2023-03-04T08:46:36;-0.31;85.91
75022;SHT31;63583;49.976;20.182;2023-03-04T08:49:03;-0.49;85.94
75022;SHT31;63583;49.976;20.182;2023-03-04T08:51:31;-0.41;85.98
75022;SHT31;63583;49.976;20.182;2023-03-04T08:53:56;-0.41;85.53
75022;SHT31;63583;49.976;20.182;2023-03-04T08:56:22;-0.36;85.71
75022;SHT31;63583;49.976;20.182;2023-03-04T08:58:48;-0.27;85.37
75022;SHT31;63583;49.976;20.182;2023-03-04T09:01:15;-0.34;85.52
75022;SHT31;63583;49.976;20.182;2023-03-04T09:03:40;-0.26;85.47
75022;SHT31;63583;49.976;20.182;2023-03-04T09:06:08;-0.23;85.20
75022;SHT31;63583;49.976;20.182;2023-03-04T09:08:34;-0.24;85.21
75022;SHT31;63583;49.976;20.182;2023-03-04T09:11:00;-0.20;84.99
75022;SHT31;63583;49.976;20.182;2023-03-04T09:13:28;-0.26;85.16
75022;SHT31;63583;49.976;20.182;2023-03-04T09:15:54;-0.06;85.00
75022;SHT31;63583;49.976;20.182;2023-03-04T09:18:20;-0.02;83.59
75022;SHT31;63583;49.976;20.182;2023-03-04T09:20:47;-0.12;84.08
75022;SHT31;63583;49.976;20.182;2023-03-04T09:23:13;-0.01;84.05
75022;SHT31;63583;49.976;20.182;2023-03-04T09:25:39;0.01;83.44
75022;SHT31;63583;49.976;20.182;2023-03-04T09:28:06;-0.03;83.70
75022;SHT31;63583;49.976;20.182;2023-03-04T09:30:32;0.14;82.97
75022;SHT31;63583;49.976;20.182;2023-03-04T09:32:58;0.12;83.20
75022;SHT31;63583;49.976;20.182;2023-03-04T09:35:24;0.21;82.27
75022;SHT31;63583;49.976;20.182;2023-03-04T09:37:50;0.32;81.99
75022;SHT31;63583;49.976;20.182;2023-03-04T09:40:28;0.26;81.47
75022;SHT31;63583;49.976;20.182;2023-03-04T09:43:00;0.35;81.22
75022;SHT31;63583;49.976;20.182;2023-03-04T09:45:50;0.26;80.80
75022;SHT31;63583;49.976;20.182;2023-03-04T09:48:21;0.36;80.64
75022;SHT31;63583;49.976;20.182;2023-03-04T09:56:37;0.28;81.18
75022;SHT31;63583;49.976;20.182;2023-03-04T09:59:24;0.36;80.83
75022;SHT31;63583;49.976;20.182;2023-03-04T10:01:56;0.36;80.86
75022;SHT31;63583;49.976;20.182;2023-03-04T10:04:33;0.24;81.30
75022;SHT31;63583;49.976;20.182;2023-03-04T10:07:01;0.26;81.22
75022;SHT31;63583;49.976;20.182;2023-03-04T10:09:44;0.16;80.94
75022;SHT31;63583;49.976;20.182;2023-03-04T10:12:12;0.21;81.40
75022;SHT31;63583;49.976;20.182;2023-03-04T10:14:43;0.32;80.54
75022;SHT31;63583;49.976;20.182;2023-03-04T10:17:39;0.26;81.48
75022;SHT31;63583;49.976;20.182;2023-03-04T10:20:11;0.43;80.80
75022;SHT31;63583;49.976;20.182;2023-03-04T10:22:41;0.55;80.81
75022;SHT31;63583;49.976;20.182;2023-03-04T10:27:43;0.46;80.93
75022;SHT31;63583;49.976;20.182;2023-03-04T10:30:29;0.43;81.21
75022;SHT31;63583;49.976;20.182;2023-03-04T10:32:56;0.36;81.61
75022;SHT31;63583;49.976;20.182;2023-03-04T10:35:25;0.49;81.06
75022;SHT31;63583;49.976;20.182;2023-03-04T10:37:52;0.57;80.44
75022;SHT31;63583;49.976;20.182;2023-03-04T10:40:24;0.53;80.55
75022;SHT31;63583;49.976;20.182;2023-03-04T10:42:51;0.55;80.60
75022;SHT31;63583;49.976;20.182;2023-03-04T10:45:23;0.63;80.73
75022;SHT31;63583;49.976;20.182;2023-03-04T10:47:56;0.53;80.53
75022;SHT31;63583;49.976;20.182;2023-03-04T10:50:26;0.63;80.32
75022;SHT31;63583;49.976;20.182;2023-03-04T10:52:53;0.59;80.66
75022;SHT31;63583;49.976;20.182;2023-03-04T10:55:29;0.69;80.77
75022;SHT31;63583;49.976;20.182;2023-03-04T10:58:01;0.59;80.73
75022;SHT31;63583;49.976;20.182;2023-03-04T11:00:34;0.64;80.71
75022;SHT31;63583;49.976;20.182;2023-03-04T11:03:23;0.57;80.86
75022;SHT31;63583;49.976;20.182;2023-03-04T11:05:51;0.60;80.68
75022;SHT31;63583;49.976;20.182;2023-03-04T11:08:22;0.60;81.00
75022;SHT31;63583;49.976;20.182;2023-03-04T11:10:49;0.66;80.91
75022;SHT31;63583;49.976;20.182;2023-03-04T11:13:19;0.67;81.31
75022;SHT31;63583;49.976;20.182;2023-03-04T11:18:16;0.80;80.16
75022;SHT31;63583;49.976;20.182;2023-03-04T11:20:46;0.83;80.12
75022;SHT31;63583;49.976;20.182;2023-03-04T11:23:13;0.80;80.43
75022;SHT31;63583;49.976;20.182;2023-03-04T11:25:49;0.76;80.93
75022;SHT31;63583;49.976;20.182;2023-03-04T11:28:41;0.81;80.83
75022;SHT31;63583;49.976;20.182;2023-03-04T11:31:13;0.97;80.26
75022;SHT31;63583;49.976;20.182;2023-03-04T11:33:56;1.03;80.28
75022;SHT31;63583;49.976;20.182;2023-03-04T11:39:18;1.03;80.09
75022;SHT31;63583;49.976;20.182;2023-03-04T11:41:55;0.95;80.14
75022;SHT31;63583;49.976;20.182;2023-03-04T11:44:22;0.98;80.27
75022;SHT31;63583;49.976;20.182;2023-03-04T11:49:52;1.25;79.87
75022;SHT31;63583;49.976;20.182;2023-03-04T11:55:43;1.28;79.09
75022;SHT31;63583;49.976;20.182;2023-03-04T12:01:10;1.18;79.76
75022;SHT31;63583;49.976;20.182;2023-03-04T12:04:19;1.24;79.49
75022;SHT31;63583;49.976;20.182;2023-03-04T12:29:14;1.69;78.63
75022;SHT31;63583;49.976;20.182;2023-03-04T12:31:45;1.66;78.65
75022;SHT31;63583;49.976;20.182;2023-03-04T12:34:30;1.74;78.34
75022;SHT31;63583;49.976;20.182;2023-03-04T12:37:46;1.80;78.53
75022;SHT31;63583;49.976;20.182;2023-03-04T12:40:13;1.83;78.14
75022;SHT31;63583;49.976;20.182;2023-03-04T12:43:15;1.70;78.07
75022;SHT31;63583;49.976;20.182;2023-03-04T12:48:31;1.76;78.42
75022;SHT31;63583;49.976;20.182;2023-03-04T12:53:52;1.67;78.62
75022;SHT31;63583;49.976;20.182;2023-03-04T12:56:25;1.73;78.86
75022;SHT31;63583;49.976;20.182;2023-03-04T12:58:52;1.76;78.59
75022;SHT31;63583;49.976;20.182;2023-03-04T13:01:34;1.86;78.59
75022;SHT31;63583;49.976;20.182;2023-03-04T13:04:06;1.87;78.36
75022;SHT31;63583;49.976;20.182;2023-03-04T13:06:48;1.83;78.71
75022;SHT31;63583;49.976;20.182;2023-03-04T13:09:28;1.79;78.99
75022;SHT31;63583;49.976;20.182;2023-03-04T13:12:40;1.98;78.20
75022;SHT31;63583;49.976;20.182;2023-03-04T13:17:54;1.97;78.39
75022;SHT31;63583;49.976;20.182;2023-03-04T13:22:56;2.11;78.27
75022;SHT31;63583;49.976;20.182;2023-03-04T13:43:56;2.27;77.66
75022;SHT31;63583;49.976;20.182;2023-03-04T13:51:22;2.35;77.33
75022;SHT31;63583;49.976;20.182;2023-03-04T13:58:44;2.28;77.12
75022;SHT31;63583;49.976;20.182;2023-03-04T14:01:30;2.34;77.44
75022;SHT31;63583;49.976;20.182;2023-03-04T14:03:58;2.39;77.61
75022;SHT31;63583;49.976;20.182;2023-03-04T14:06:26;2.32;77.18
75022;SHT31;63583;49.976;20.182;2023-03-04T14:08:53;2.34;77.10
75022;SHT31;63583;49.976;20.182;2023-03-04T14:11:37;2.37;77.54
75022;SHT31;63583;49.976;20.182;2023-03-04T14:14:18;2.42;76.87
75022;SHT31;63583;49.976;20.182;2023-03-04T14:16:59;2.35;77.34
75022;SHT31;63583;49.976;20.182;2023-03-04T14:19:30;2.35;77.20
75022;SHT31;63583;49.976;20.182;2023-03-04T14:21:58;2.45;77.38
75022;SHT31;63583;49.976;20.182;2023-03-04T14:24:24;2.45;77.08
75022;SHT31;63583;49.976;20.182;2023-03-04T14:27:05;2.44;77.10
75022;SHT31;63583;49.976;20.182;2023-03-04T14:29:31;2.38;77.32
75022;SHT31;63583;49.976;20.182;2023-03-04T14:31:57;2.44;77.37
75022;SHT31;63583;49.976;20.182;2023-03-04T14:34:37;2.42;77.21
75022;SHT31;63583;49.976;20.182;2023-03-04T14:37:20;2.48;77.17
75022;SHT31;63583;49.976;20.182;2023-03-04T14:39:49;2.46;77.40
75022;SHT31;63583;49.976;20.182;2023-03-04T14:42:15;2.49;77.20
75022;SHT31;63583;49.976;20.182;2023-03-04T14:44:44;2.32;77.82
75022;SHT31;63583;49.976;20.182;2023-03-04T14:47:35;2.29;78.57
75022;SHT31;63583;49.976;20.182;2023-03-04T14:50:05;2.29;78.75
75022;SHT31;63583;49.976;20.182;2023-03-04T14:52:42;2.24;79.06
75022;SHT31;63583;49.976;20.182;2023-03-04T14:57:34;2.25;79.65
75022;SHT31;63583;49.976;20.182;2023-03-04T15:00:23;2.24;79.78
75022;SHT31;63583;49.976;20.182;2023-03-04T15:02:52;2.31;79.30
75022;SHT31;63583;49.976;20.182;2023-03-04T15:05:28;2.27;79.98
75022;SHT31;63583;49.976;20.182;2023-03-04T15:08:05;2.17;79.96
75022;SHT31;63583;49.976;20.182;2023-03-04T15:10:41;2.21;79.60
75022;SHT31;63583;49.976;20.182;2023-03-04T15:13:08;2.20;79.80
75022;SHT31;63583;49.976;20.182;2023-03-04T15:15:39;2.27;79.31
75022;SHT31;63583;49.976;20.182;2023-03-04T15:18:26;2.32;79.47
75022;SHT31;63583;49.976;20.182;2023-03-04T15:23:41;2.27;79.29
75022;SHT31;63583;49.976;20.182;2023-03-04T15:26:09;2.32;78.41
75022;SHT31;63583;49.976;20.182;2023-03-04T15:28:37;2.28;78.57
75022;SHT31;63583;49.976;20.182;2023-03-04T15:31:04;2.31;78.49
75022;SHT31;63583;49.976;20.182;2023-03-04T15:33:29;2.35;78.23
75022;SHT31;63583;49.976;20.182;2023-03-04T15:35:59;2.27;77.92
75022;SHT31;63583;49.976;20.182;2023-03-04T15:38:27;2.37;77.98
75022;SHT31;63583;49.976;20.182;2023-03-04T15:40:54;2.32;77.86
75022;SHT31;63583;49.976;20.182;2023-03-04T15:43:22;2.32;77.70
75022;SHT31;63583;49.976;20.182;2023-03-04T15:45:49;2.49;77.00
75022;SHT31;63583;49.976;20.182;2023-03-04T15:48:16;2.45;76.87
75022;SHT31;63583;49.976;20.182;2023-03-04T15:53:18;2.44;76.72
75022;SHT31;63583;49.976;20.182;2023-03-04T15:55:46;2.50;76.53
75022;SHT31;63583;49.976;20.182;2023-03-04T15:58:13;2.50;76.14
75022;SHT31;63583;49.976;20.182;2023-03-04T16:00:39;2.55;75.95
75022;SHT31;63583;49.976;20.182;2023-03-04T16:03:05;2.53;75.64
75022;SHT31;63583;49.976;20.182;2023-03-04T16:05:34;2.52;75.79
75022;SHT31;63583;49.976;20.182;2023-03-04T16:08:00;2.56;75.09
75022;SHT31;63583;49.976;20.182;2023-03-04T16:10:28;2.56;75.16
75022;SHT31;63583;49.976;20.182;2023-03-04T16:12:55;2.63;74.61
75022;SHT31;63583;49.976;20.182;2023-03-04T16:15:23;2.62;74.37
75022;SHT31;63583;49.976;20.182;2023-03-04T16:17:49;2.69;74.37
75022;SHT31;63583;49.976;20.182;2023-03-04T16:20:19;2.73;74.25
75022;SHT31;63583;49.976;20.182;2023-03-04T16:22:46;2.69;73.70
75022;SHT31;63583;49.976;20.182;2023-03-04T16:25:14;2.69;73.95
75022;SHT31;63583;49.976;20.182;2023-03-04T16:27:40;2.71;73.77
75022;SHT31;63583;49.976;20.182;2023-03-04T16:30:19;2.69;73.84
75022;SHT31;63583;49.976;20.182;2023-03-04T16:32:44;2.77;73.79
75022;SHT31;63583;49.976;20.182;2023-03-04T16:35:11;2.82;73.73
75022;SHT31;63583;49.976;20.182;2023-03-04T16:37:37;2.77;73.42
75022;SHT31;63583;49.976;20.182;2023-03-04T16:40:04;2.72;73.41
75022;SHT31;63583;49.976;20.182;2023-03-04T16:42:29;2.72;73.31
75022;SHT31;63583;49.976;20.182;2023-03-04T16:44:55;2.67;73.59
75022;SHT31;63583;49.976;20.182;2023-03-04T16:47:21;2.69;73.40
75022;SHT31;63583;49.976;20.182;2023-03-04T16:49:48;2.79;73.49
75022;SHT31;63583;49.976;20.182;2023-03-04T16:52:22;2.73;73.50
75022;SHT31;63583;49.976;20.182;2023-03-04T16:54:49;2.75;73.07
75022;SHT31;63583;49.976;20.182;2023-03-04T16:57:14;2.73;73.88
75022;SHT31;63583;49.976;20.182;2023-03-04T16:59:40;2.75;73.37
75022;SHT31;63583;49.976;20.182;2023-03-04T17:02:12;2.77;73.22
75022;SHT31;63583;49.976;20.182;2023-03-04T17:04:38;2.71;73.57
75022;SHT31;63583;49.976;20.182;2023-03-04T17:07:04;2.69;73.30
75022;SHT31;63583;49.976;20.182;2023-03-04T17:09:29;2.82;73.04